createdAt,value
2023-11-05T00:00:35.729Z,99467.34
2023-11-05T00:03:03.645Z,99456.09
2023-11-05T00:05:30.770Z,99454.28
2023-11-05T00:07:58.532Z,99448.95
2023-11-05T00:10:26.071Z,99448.66
2023-11-05T00:12:53.446Z,99427.30
2023-11-05T00:15:20.250Z,99434.52
2023-11-05T00:17:47.638Z,99423.80
2023-11-05T00:20:15.689Z,99415.95
2023-11-05T00:22:43.321Z,99401.45
2023-11-05T00:25:10.312Z,99392.17
2023-11-05T00:27:37.612Z,99379.01
2023-11-05T00:30:05.586Z,99359.04
2023-11-05T00:32:33.461Z,99361.30
2023-11-05T00:35:01.034Z,99343.21
2023-11-05T00:37:29.483Z,99338.06
2023-11-05T00:39:56.933Z,99326.95
2023-11-05T00:42:24.201Z,99332.15
2023-11-05T00:44:51.770Z,99321.09
2023-11-05T00:47:19.103Z,99312.55
2023-11-05T00:49:46.177Z,99336.97
2023-11-05T00:52:16.734Z,99324.42
2023-11-05T00:54:44.665Z,99330.95
2023-11-05T00:57:15.809Z,99337.00
2023-11-05T00:59:45.738Z,99336.49
2023-11-05T01:02:12.935Z,99343.31
2023-11-05T01:04:47.576Z,99345.09
2023-11-05T01:07:17.014Z,99338.09
2023-11-05T01:09:44.071Z,99334.80
2023-11-05T01:12:11.281Z,99335.25
2023-11-05T01:14:40.185Z,99337.08
2023-11-05T01:17:11.536Z,99346.66
2023-11-05T01:19:42.354Z,99352.73
2023-11-05T01:22:09.958Z,99352.71
2023-11-05T01:24:39.746Z,99346.88
2023-11-05T01:27:08.879Z,99348.50
2023-11-05T01:29:36.400Z,99345.66
2023-11-05T01:32:07.842Z,99353.57
2023-11-05T01:34:35.644Z,99348.41
2023-11-05T01:37:03.644Z,99353.60
2023-11-05T01:39:30.544Z,99363.84
2023-11-05T01:41:57.613Z,99370.33
2023-11-05T01:44:24.880Z,99364.86
2023-11-05T01:46:52.954Z,99365.84
2023-11-05T01:49:20.000Z,99347.95
2023-11-05T01:51:47.153Z,99341.36
2023-11-05T01:54:14.230Z,99332.09
2023-11-05T01:56:41.286Z,99335.80
2023-11-05T01:59:09.240Z,99329.65
2023-11-05T02:01:36.333Z,99329.06
2023-11-05T02:04:03.371Z,99323.56
2023-11-05T02:06:30.689Z,99311.81
2023-11-05T02:08:57.750Z,99300.28
2023-11-05T02:11:26.314Z,99292.33
2023-11-05T02:13:53.364Z,99290.46
2023-11-05T02:16:20.828Z,99299.36
2023-11-05T02:18:48.264Z,99290.79
2023-11-05T02:21:20.899Z,99292.24
2023-11-05T02:23:48.661Z,99290.77
2023-11-05T02:26:16.262Z,99291.50
2023-11-05T02:28:43.741Z,99290.39
2023-11-05T02:31:10.850Z,99287.67
2023-11-05T02:33:43.050Z,99289.50
2023-11-05T02:36:10.851Z,99286.36
2023-11-05T02:38:38.420Z,99278.42
2023-11-05T02:41:06.856Z,99278.66
2023-11-05T02:43:33.984Z,99274.86
2023-11-05T02:46:01.761Z,99273.31
2023-11-05T02:48:29.058Z,99270.21
2023-11-05T02:50:55.896Z,99267.47
2023-11-05T02:53:23.771Z,99262.31
2023-11-05T02:55:50.972Z,99267.88
2023-11-05T02:58:19.022Z,99267.73
2023-11-05T03:00:46.254Z,99272.42
2023-11-05T03:03:13.348Z,99277.70
2023-11-05T03:05:43.921Z,99279.52
2023-11-05T03:08:11.147Z,99283.29
2023-11-05T03:10:38.412Z,99273.30
2023-11-05T03:13:06.814Z,99267.13
2023-11-05T03:15:33.994Z,99275.13
2023-11-05T03:18:01.124Z,99283.09
2023-11-05T03:20:29.012Z,99282.28
2023-11-05T03:22:55.920Z,99283.91
2023-11-05T03:25:23.362Z,99285.11
2023-11-05T03:27:51.118Z,99283.43
2023-11-05T03:30:19.166Z,99279.50
2023-11-05T03:32:46.310Z,99282.36
2023-11-05T03:35:13.620Z,99277.80
2023-11-05T03:37:40.726Z,99282.98
2023-11-05T03:40:08.304Z,99279.46
2023-11-05T03:42:35.498Z,99279.25
2023-11-05T03:45:02.868Z,99276.98
2023-11-05T03:47:30.331Z,99277.38
2023-11-05T03:49:57.286Z,99289.39
2023-11-05T03:52:24.406Z,99297.08
2023-11-05T03:54:53.017Z,99287.84
2023-11-05T03:57:20.058Z,99280.41
2023-11-05T03:59:47.597Z,99296.34
2023-11-05T04:02:14.751Z,99293.05
2023-11-05T04:04:46.552Z,99292.73
2023-11-05T04:07:13.707Z,99294.84
2023-11-05T04:09:42.082Z,99300.70
2023-11-05T04:12:09.137Z,99301.45
2023-11-05T04:14:36.562Z,99309.67
2023-11-05T04:17:03.617Z,99307.17
2023-11-05T04:19:30.610Z,99310.17
2023-11-05T04:21:57.661Z,99313.98
2023-11-05T04:24:24.878Z,99323.98
2023-11-05T04:26:51.922Z,99329.08
2023-11-05T04:29:19.155Z,99336.20
2023-11-05T04:31:46.194Z,99339.54
2023-11-05T04:34:13.233Z,99332.22
2023-11-05T04:36:43.210Z,99337.88
2023-11-05T04:39:10.068Z,99346.98
2023-11-05T04:41:36.958Z,99330.42
2023-11-05T04:44:04.231Z,99317.59
2023-11-05T04:46:31.654Z,99346.39
2023-11-05T04:48:58.833Z,99365.75
2023-11-05T04:51:26.045Z,99374.54
2023-11-05T04:53:54.052Z,99371.86
2023-11-05T04:56:20.892Z,99369.33
2023-11-05T04:58:47.816Z,99383.95
2023-11-05T05:01:14.831Z,99363.34
2023-11-05T05:03:42.303Z,99376.90
2023-11-05T05:06:09.706Z,99369.77
2023-11-05T05:08:36.892Z,99353.35
2023-11-05T05:11:05.803Z,99338.20
2023-11-05T05:13:32.964Z,99374.67
2023-11-05T05:16:00.150Z,99370.05
2023-11-05T05:18:29.353Z,99370.91
2023-11-05T05:20:56.379Z,99366.98
2023-11-05T05:23:23.143Z,99350.45
2023-11-05T05:25:50.221Z,99359.90
2023-11-05T05:28:17.956Z,99369.23
2023-11-05T05:30:45.291Z,99370.83
2023-11-05T05:33:12.430Z,99371.24
2023-11-05T05:35:39.759Z,99372.29
2023-11-05T05:38:08.333Z,99367.17
2023-11-05T05:40:35.604Z,99368.67
2023-11-05T05:43:03.856Z,99372.52
2023-11-05T05:45:30.756Z,99372.67
2023-11-05T05:47:57.760Z,99371.11
2023-11-05T05:50:25.013Z,99364.35
2023-11-05T05:52:52.238Z,99358.67
2023-11-05T05:55:19.453Z,99368.33
2023-11-05T05:57:46.505Z,99365.98
2023-11-05T06:00:14.727Z,99373.84
2023-11-05T06:02:41.582Z,99369.82
2023-11-05T06:05:09.030Z,99368.83
2023-11-05T06:07:37.194Z,99374.19
2023-11-05T06:10:06.553Z,99371.66
2023-11-05T06:12:33.958Z,99367.70
2023-11-05T06:15:08.677Z,99371.61
2023-11-05T06:17:40.525Z,99372.81
2023-11-05T06:20:08.606Z,99367.73
2023-11-05T06:22:38.088Z,99367.70
2023-11-05T06:25:06.199Z,99361.41
2023-11-05T06:27:33.455Z,99369.04
2023-11-05T06:30:04.234Z,99360.79
2023-11-05T06:32:31.707Z,99361.44
2023-11-05T06:35:00.767Z,99359.15
2023-11-05T06:37:29.937Z,99367.05
2023-11-05T06:39:57.935Z,99373.80
2023-11-05T06:42:24.806Z,99371.70
2023-11-05T06:44:52.006Z,99359.40
2023-11-05T06:47:19.253Z,99356.62
2023-11-05T06:49:47.175Z,99359.09
2023-11-05T06:52:14.819Z,99358.98
2023-11-05T06:54:43.300Z,99361.20
2023-11-05T06:57:10.637Z,99359.60
2023-11-05T06:59:38.290Z,99356.35
2023-11-05T07:02:05.376Z,99352.91
2023-11-05T07:04:34.183Z,99359.19
2023-11-05T07:07:02.279Z,99366.80
2023-11-05T07:09:30.358Z,99371.48
2023-11-05T07:11:58.246Z,99375.70
2023-11-05T07:14:26.329Z,99383.34
2023-11-05T07:16:54.145Z,99378.25
2023-11-05T07:19:22.298Z,99375.73
2023-11-05T07:21:51.086Z,99384.46
2023-11-05T07:24:19.442Z,99382.10
2023-11-05T07:26:48.109Z,99379.84
2023-11-05T07:29:17.138Z,99363.55
2023-11-05T07:31:45.456Z,99363.72
2023-11-05T07:34:13.330Z,99363.55
2023-11-05T07:36:41.095Z,99363.05
2023-11-05T07:39:10.189Z,99367.89
2023-11-05T07:41:38.112Z,99363.19
2023-11-05T07:44:06.448Z,99350.50
2023-11-05T07:46:35.824Z,99330.92
2023-11-05T07:49:04.907Z,99324.07
2023-11-05T07:51:35.103Z,99316.27
2023-11-05T07:54:06.201Z,99322.42
2023-11-05T07:56:37.400Z,99323.77
2023-11-05T07:59:08.374Z,99330.45
2023-11-05T08:01:39.249Z,99335.38
2023-11-05T08:04:10.467Z,99329.45
2023-11-05T08:06:46.397Z,99325.34
2023-11-05T08:09:17.788Z,99315.81
2023-11-05T08:11:51.155Z,99307.77
2023-11-05T08:14:24.160Z,99315.70
2023-11-05T08:16:54.701Z,99317.50
2023-11-05T08:19:26.221Z,99314.70
2023-11-05T08:21:57.140Z,99308.60
2023-11-05T08:24:28.179Z,99309.79
2023-11-05T08:27:00.150Z,99318.98
2023-11-05T08:29:31.315Z,99340.71
2023-11-05T08:32:03.749Z,99348.83
2023-11-05T08:34:35.373Z,99345.63
2023-11-05T08:37:10.908Z,99339.88
2023-11-05T08:39:42.470Z,99335.86
2023-11-05T08:42:23.521Z,99332.39
2023-11-05T08:44:57.482Z,99323.45
2023-11-05T08:47:29.272Z,99325.83
2023-11-05T08:50:08.805Z,99319.21
2023-11-05T08:58:55.552Z,99305.26
2023-11-05T09:01:30.640Z,99310.33
2023-11-05T09:04:00.139Z,99314.58
2023-11-05T09:06:31.542Z,99314.23
2023-11-05T09:09:02.249Z,99313.85
2023-11-05T09:11:32.766Z,99312.49
2023-11-05T09:14:01.203Z,99311.74
2023-11-05T09:16:30.710Z,99310.43
2023-11-05T09:19:00.983Z,99310.96
2023-11-05T09:21:31.816Z,99314.03
2023-11-05T09:24:01.908Z,99312.42
2023-11-05T09:26:36.024Z,99308.11
2023-11-05T09:29:06.465Z,99300.39
2023-11-05T09:31:34.494Z,99298.80
2023-11-05T09:34:09.135Z,99296.56
2023-11-05T09:36:37.870Z,99291.73
2023-11-05T09:39:09.399Z,99293.01
2023-11-05T09:41:43.932Z,99293.13
2023-11-05T09:44:13.929Z,99292.42
2023-11-05T09:46:47.970Z,99289.59
2023-11-05T09:49:16.618Z,99285.30
2023-11-05T09:51:49.924Z,99287.02
2023-11-05T09:54:19.181Z,99285.27
2023-11-05T09:56:47.087Z,99286.65
2023-11-05T09:59:15.726Z,99281.73
2023-11-05T10:01:53.212Z,99278.02
2023-11-05T10:04:21.627Z,99273.90
2023-11-05T10:06:49.569Z,99272.83
2023-11-05T10:09:17.307Z,99269.92
2023-11-05T10:11:45.640Z,99271.17
2023-11-05T10:14:13.481Z,99266.14
2023-11-05T10:16:41.477Z,99268.17
2023-11-05T10:19:12.820Z,99265.17
2023-11-05T10:21:40.798Z,99258.39
2023-11-05T10:24:10.861Z,99259.13
2023-11-05T10:26:38.877Z,99252.99
2023-11-05T10:29:08.836Z,99250.65
2023-11-05T10:31:37.733Z,99248.90
2023-11-05T10:34:05.989Z,99250.80
2023-11-05T10:36:34.613Z,99246.47
2023-11-05T10:39:02.306Z,99248.16
2023-11-05T10:41:33.597Z,99245.98
2023-11-05T10:44:03.882Z,99253.34
2023-11-05T10:46:34.302Z,99254.77
2023-11-05T10:49:04.523Z,99254.89
2023-11-05T10:51:35.217Z,99258.48
2023-11-05T10:54:04.997Z,99261.28
2023-11-05T10:56:35.381Z,99257.57
2023-11-05T10:59:05.360Z,99262.89
2023-11-05T11:01:37.020Z,99264.45
2023-11-05T11:11:28.020Z,99262.16
2023-11-05T11:13:57.488Z,99263.55
2023-11-05T11:16:28.942Z,99264.56
2023-11-05T11:18:56.285Z,99266.35
2023-11-05T11:21:24.587Z,99276.74
2023-11-05T11:23:51.763Z,99279.13
2023-11-05T11:26:26.693Z,99277.64
2023-11-05T11:28:58.452Z,99278.32
2023-11-05T11:31:28.968Z,99277.58
2023-11-05T11:33:56.823Z,99279.00
2023-11-05T11:36:24.626Z,99273.29
2023-11-05T11:38:52.001Z,99280.30
2023-11-05T11:41:18.931Z,99273.80
2023-11-05T11:43:46.163Z,99278.16
2023-11-05T11:46:13.224Z,99281.06
2023-11-05T11:48:40.487Z,99288.45
2023-11-05T11:51:11.825Z,99291.64
2023-11-05T11:53:44.698Z,99293.00
2023-11-05T11:56:13.711Z,99305.12
2023-11-05T11:58:41.309Z,99306.73
2023-11-05T12:01:16.862Z,99311.24
2023-11-05T12:03:44.443Z,99315.05
2023-11-05T12:06:15.634Z,99320.99
2023-11-05T12:08:44.482Z,99323.08
2023-11-05T12:11:13.237Z,99324.17
2023-11-05T12:13:44.754Z,99329.91
2023-11-05T12:16:13.278Z,99335.12
2023-11-05T12:18:41.392Z,99329.97
2023-11-05T12:21:09.443Z,99340.86
2023-11-05T12:23:37.209Z,99345.73
2023-11-05T12:26:06.705Z,99349.54
2023-11-05T12:28:36.341Z,99357.04
2023-11-05T12:31:07.527Z,99366.92
2023-11-05T12:33:35.844Z,99373.67
2023-11-05T12:36:03.657Z,99381.51
2023-11-05T12:38:33.469Z,99391.77
2023-11-05T12:41:00.592Z,99396.18
2023-11-05T12:43:30.697Z,99402.02
2023-11-05T12:46:00.950Z,99411.01
2023-11-05T12:48:32.220Z,99414.20
2023-11-05T12:51:04.569Z,99418.27
2023-11-05T12:53:31.945Z,99424.95
2023-11-05T12:56:11.636Z,99426.16
2023-11-05T12:58:41.136Z,99431.71
2023-11-05T13:01:11.436Z,99436.12
2023-11-05T13:03:39.525Z,99438.17
2023-11-05T13:06:08.953Z,99443.04
2023-11-05T13:08:37.627Z,99447.27
2023-11-05T13:11:05.996Z,99447.61
2023-11-05T13:13:34.499Z,99444.46
2023-11-05T13:16:02.727Z,99437.85
2023-11-05T13:18:30.192Z,99429.41
2023-11-05T13:20:57.954Z,99424.58
2023-11-05T13:23:26.694Z,99420.40
2023-11-05T13:25:53.940Z,99416.77
2023-11-05T13:28:21.832Z,99423.10
2023-11-05T13:30:49.139Z,99428.74
2023-11-05T13:33:17.224Z,99427.27
2023-11-05T13:35:47.121Z,99431.17
2023-11-05T13:38:14.404Z,99435.59
2023-11-05T13:40:41.553Z,99436.95
2023-11-05T13:43:08.861Z,99438.06
2023-11-05T13:45:35.920Z,99440.58
2023-11-05T13:48:04.447Z,99437.86
2023-11-05T13:50:32.458Z,99440.11
2023-11-05T13:53:00.363Z,99438.77
2023-11-05T13:55:27.571Z,99437.21
2023-11-05T13:57:54.818Z,99435.92
2023-11-05T14:00:23.137Z,99439.52
2023-11-05T14:02:50.471Z,99442.23
2023-11-05T14:05:17.822Z,99443.16
2023-11-05T14:07:46.251Z,99447.33
2023-11-05T14:10:15.544Z,99444.69
2023-11-05T14:12:42.770Z,99446.22
2023-11-05T14:15:10.062Z,99453.91
2023-11-05T14:17:40.758Z,99459.85
2023-11-05T14:20:13.178Z,99461.91
2023-11-05T14:22:41.289Z,99468.20
2023-11-05T14:25:08.833Z,99471.52
2023-11-05T14:27:36.646Z,99472.80
2023-11-05T14:30:05.321Z,99475.72
2023-11-05T14:32:32.792Z,99474.52
2023-11-05T14:35:00.038Z,99472.08
2023-11-05T14:37:27.652Z,99473.77
2023-11-05T14:39:54.825Z,99474.19
2023-11-05T14:42:22.683Z,99477.68
2023-11-05T14:44:49.783Z,99477.39
2023-11-05T14:47:17.526Z,99477.36
2023-11-05T14:49:47.656Z,99481.26
2023-11-05T14:52:14.700Z,99484.44
2023-11-05T14:54:41.676Z,99485.80
2023-11-05T14:57:09.278Z,99480.96
2023-11-05T14:59:36.341Z,99485.94
2023-11-05T15:02:04.116Z,99487.81
2023-11-05T15:04:32.123Z,99491.84
2023-11-05T15:07:00.068Z,99495.13
2023-11-05T15:09:27.122Z,99496.73
2023-11-05T15:11:54.256Z,99495.46
2023-11-05T15:14:22.173Z,99492.05
2023-11-05T15:16:50.365Z,99492.99
2023-11-05T15:19:18.971Z,99491.98
2023-11-05T15:21:47.801Z,99493.61
2023-11-05T15:24:17.906Z,99496.67
2023-11-05T15:26:46.156Z,99490.98
2023-11-05T15:29:13.382Z,99490.60
2023-11-05T15:31:40.511Z,99495.90
2023-11-05T15:34:14.681Z,99500.24
2023-11-05T15:36:41.820Z,99504.74
2023-11-05T15:39:10.657Z,99504.61
2023-11-05T15:41:37.982Z,99499.55
2023-11-05T15:44:06.356Z,99501.66
2023-11-05T15:46:33.653Z,99509.09
2023-11-05T15:49:04.094Z,99507.94
2023-11-05T15:51:33.782Z,99514.16
2023-11-05T15:54:00.804Z,99517.36
2023-11-05T15:56:29.650Z,99513.20
2023-11-05T15:58:57.698Z,99517.65
2023-11-05T16:01:25.379Z,99519.98
2023-11-05T16:03:52.732Z,99515.20
2023-11-05T16:06:21.201Z,99509.89
2023-11-05T16:08:51.277Z,99509.65
2023-11-05T16:11:18.384Z,99512.14
2023-11-05T16:13:45.783Z,99509.90
2023-11-05T16:16:12.792Z,99515.36
2023-11-05T16:18:40.263Z,99511.80
2023-11-05T16:21:08.139Z,99504.71
2023-11-05T16:23:36.120Z,99505.92
2023-11-05T16:26:03.662Z,99505.36
2023-11-05T16:28:31.359Z,99505.88
2023-11-05T16:31:01.872Z,99508.26
2023-11-05T16:33:29.820Z,99500.65
2023-11-05T16:35:58.553Z,99496.81
2023-11-05T16:38:26.164Z,99495.62
2023-11-05T16:40:53.933Z,99491.86
2023-11-05T16:43:21.855Z,99486.77
2023-11-05T16:45:49.520Z,99481.05
2023-11-05T16:48:19.448Z,99476.31
2023-11-05T16:50:46.710Z,99478.96
2023-11-05T16:53:17.214Z,99477.01
2023-11-05T16:55:46.370Z,99480.94
2023-11-05T16:58:42.342Z,99479.41
2023-11-05T17:01:18.545Z,99477.02
2023-11-05T17:03:47.536Z,99476.67
2023-11-05T17:06:18.902Z,99474.00
2023-11-05T17:08:46.361Z,99469.77
2023-11-05T17:11:15.343Z,99468.21
2023-11-05T17:13:43.584Z,99473.95
2023-11-05T17:16:11.386Z,99477.08
2023-11-05T17:18:38.894Z,99474.10
2023-11-05T17:21:06.991Z,99470.69
2023-11-05T17:23:34.542Z,99467.36
2023-11-05T17:26:02.556Z,99472.09
2023-11-05T17:28:31.477Z,99469.01
2023-11-05T17:30:58.770Z,99466.55
2023-11-05T17:33:26.648Z,99468.40
2023-11-05T17:35:54.158Z,99467.75
2023-11-05T17:38:21.794Z,99464.67
2023-11-05T17:40:53.698Z,99465.89
2023-11-05T17:43:21.947Z,99462.34
2023-11-05T17:45:50.058Z,99457.17
2023-11-05T17:48:17.518Z,99461.33
2023-11-05T17:50:45.316Z,99462.24
2023-11-05T17:53:13.824Z,99459.22
2023-11-05T17:55:41.070Z,99454.23
2023-11-05T17:58:08.353Z,99449.44
2023-11-05T18:00:37.888Z,99450.33
2023-11-05T18:03:06.952Z,99452.98
2023-11-05T18:05:36.216Z,99453.23
2023-11-05T18:08:04.511Z,99450.46
2023-11-05T18:10:43.012Z,99441.67
2023-11-05T18:13:18.361Z,99442.63
2023-11-05T18:15:46.593Z,99440.80
2023-11-05T18:18:15.000Z,99438.02
2023-11-05T18:20:50.851Z,99434.95
2023-11-05T18:23:19.913Z,99430.56
2023-11-05T18:25:47.757Z,99432.41
2023-11-05T18:28:15.256Z,99430.70
2023-11-05T18:30:44.081Z,99432.37
2023-11-05T18:33:12.388Z,99432.94
2023-11-05T18:35:46.040Z,99424.98
2023-11-05T18:38:17.966Z,99426.56
2023-11-05T18:40:49.531Z,99423.74
2023-11-05T18:43:17.261Z,99425.20
2023-11-05T18:45:44.980Z,99428.73
2023-11-05T18:48:14.117Z,99435.23
2023-11-05T18:50:45.170Z,99433.77
2023-11-05T18:53:12.887Z,99429.96
2023-11-05T18:55:41.221Z,99431.25
2023-11-05T18:58:10.142Z,99431.40
2023-11-05T19:00:38.034Z,99427.95
2023-11-05T19:03:08.311Z,99420.00
2023-11-05T19:05:37.342Z,99423.86
2023-11-05T19:08:05.222Z,99418.88
2023-11-05T19:10:32.827Z,99421.16
2023-11-05T19:13:01.147Z,99418.02
2023-11-05T19:15:31.283Z,99420.98
2023-11-05T19:24:08.690Z,99415.58
2023-11-05T19:26:41.734Z,99412.55
2023-11-05T19:29:09.645Z,99410.48
2023-11-05T19:31:38.027Z,99417.96
2023-11-05T19:34:06.228Z,99415.56
2023-11-05T19:36:34.622Z,99425.52
2023-11-05T19:39:06.702Z,99423.04
2023-11-05T19:41:37.873Z,99421.52
2023-11-05T19:44:10.257Z,99424.16
2023-11-05T19:46:38.157Z,99422.86
2023-11-05T19:49:06.234Z,99425.46
2023-11-05T19:51:36.854Z,99421.24
2023-11-05T19:54:05.731Z,99417.08
2023-11-05T19:56:34.239Z,99419.36
2023-11-05T19:59:03.931Z,99426.48
2023-11-05T20:01:32.135Z,99425.14
2023-11-05T20:04:02.880Z,99421.90
2023-11-05T20:06:31.046Z,99419.88
2023-11-05T20:08:59.495Z,99419.35
2023-11-05T20:11:27.446Z,99417.06
2023-11-05T20:13:55.741Z,99411.08
2023-11-05T20:16:23.986Z,99410.32
2023-11-05T20:18:52.628Z,99412.35
2023-11-05T20:21:20.803Z,99408.34
2023-11-05T20:23:49.384Z,99397.09
2023-11-05T20:26:22.216Z,99403.41
2023-11-05T20:28:51.738Z,99392.08
2023-11-05T20:31:22.035Z,99392.06
2023-11-05T20:33:51.739Z,99389.66
2023-11-05T20:36:19.616Z,99381.31
2023-11-05T20:38:47.629Z,99376.73
2023-11-05T20:41:15.354Z,99371.64
2023-11-05T20:43:43.417Z,99367.75
2023-11-05T20:46:11.440Z,99371.48
2023-11-05T20:48:39.440Z,99372.70
2023-11-05T20:51:07.264Z,99372.70
2023-11-05T20:53:36.142Z,99374.81
2023-11-05T20:56:04.280Z,99365.76
2023-11-05T20:58:32.254Z,99362.95
2023-11-05T21:01:00.713Z,99364.81
2023-11-05T21:03:28.513Z,99366.02
2023-11-05T21:05:56.523Z,99373.30
2023-11-05T21:08:24.815Z,99376.31
2023-11-05T21:10:56.451Z,99369.55
2023-11-05T21:13:30.623Z,99365.42
2023-11-05T21:15:59.404Z,99372.69
2023-11-05T21:18:27.257Z,99375.40
2023-11-05T21:20:55.015Z,99375.17
2023-11-05T21:23:22.818Z,99374.65
2023-11-05T21:25:50.537Z,99371.27
2023-11-05T21:28:18.379Z,99371.50
2023-11-05T21:30:49.301Z,99370.23
2023-11-05T21:33:20.504Z,99368.82
2023-11-05T21:35:49.175Z,99362.64
2023-11-05T21:38:20.325Z,99363.25
2023-11-05T21:40:48.828Z,99364.89
2023-11-05T21:43:16.528Z,99356.56
2023-11-05T21:45:44.340Z,99355.52
2023-11-05T21:48:12.057Z,99355.92
2023-11-05T21:50:43.729Z,99357.38
2023-11-05T21:53:11.820Z,99354.05
2023-11-05T21:55:42.490Z,99355.80
2023-11-05T21:58:10.492Z,99350.94
2023-11-05T22:00:39.709Z,99351.78
2023-11-05T22:03:07.767Z,99346.08
2023-11-05T22:05:36.042Z,99336.72
2023-11-05T22:08:04.781Z,99340.69
2023-11-05T22:10:32.543Z,99334.76
2023-11-05T22:13:00.860Z,99334.33
2023-11-05T22:15:28.597Z,99323.82
2023-11-05T22:17:58.741Z,99322.16
2023-11-05T22:20:28.317Z,99316.88
2023-11-05T22:22:56.544Z,99306.30
2023-11-05T22:25:24.391Z,99305.63
2023-11-05T22:27:52.064Z,99300.27
2023-11-05T22:30:19.739Z,99299.04
2023-11-05T22:32:47.466Z,99293.55
2023-11-05T22:35:15.924Z,99283.88
2023-11-05T22:37:43.834Z,99276.81
2023-11-05T22:40:13.216Z,99272.21
2023-11-05T22:42:40.990Z,99274.16
2023-11-05T22:45:10.356Z,99275.54
2023-11-05T22:47:38.172Z,99273.89
2023-11-05T22:50:06.485Z,99276.50
2023-11-05T22:52:34.069Z,99270.83
2023-11-05T22:55:04.946Z,99271.58
2023-11-05T22:57:32.553Z,99261.87
2023-11-05T23:00:00.182Z,99253.46
2023-11-05T23:02:28.833Z,99248.69
2023-11-05T23:04:56.500Z,99245.45
2023-11-05T23:07:24.176Z,99242.83
2023-11-05T23:09:52.041Z,99240.65
2023-11-05T23:12:19.653Z,99245.09
2023-11-05T23:14:47.270Z,99247.17
2023-11-05T23:17:15.015Z,99247.05
2023-11-05T23:19:42.745Z,99243.34
2023-11-05T23:22:10.310Z,99237.02
2023-11-05T23:24:38.206Z,99233.23
2023-11-05T23:27:05.972Z,99226.80
2023-11-05T23:29:33.589Z,99220.92
2023-11-05T23:32:01.794Z,99219.54
2023-11-05T23:34:30.126Z,99221.16
2023-11-05T23:36:59.686Z,99217.26
2023-11-05T23:39:27.376Z,99215.57
2023-11-05T23:41:57.443Z,99212.18
2023-11-05T23:44:26.494Z,99211.04
2023-11-05T23:46:54.337Z,99209.23
2023-11-05T23:49:22.707Z,99206.78
2023-11-05T23:51:50.352Z,99207.30
2023-11-05T23:54:17.991Z,99206.70
2023-11-05T23:56:45.539Z,99201.25
2023-11-05T23:59:13.337Z,99197.56
